Main page
METAR-TAF:

METAR-TAF

Airports :

RAF Shawbury

Shawbury, England

latitude: 52-48N, longitude: 002-40W, elevation: 76 m

Current weather observation

The report was made 29 minutes ago, at 09:50 UTC
Wind 9 kt from the East
Temperature 8°C
Humidity 71%
Pressure 1025 hPa
Visibility 10 km or more
Broken clouds at a height of 4000 ft

METAR: EGOS 190950Z 08009KT 9999 BKN040 08/03 Q1025 BLU TEMPO SCT020 WHT

Time: 10:19 (10:19 UTC)

Forecast

The report was made 2 hours and 20 minutes ago, at 07:59 UTC
Forecast valid from 19 at 09 UTC to 19 at 18 UTC
Wind 10 kt from the East/Northeast
Visibility 10 km or more
Broken clouds at a height of 2500 ft
Temporary
from 19 at 09 UTC to 19 at 18 UTC
Scattered clouds at a height of 1800 ft
Probability 30% :
Temporary
from 19 at 10 UTC to 19 at 16 UTC
Wind 12 kt from the East/Northeast with gusts up to 25 kt
Visibility: 7000 m
rain showers

TAF: EGOS 190759Z 1909/1918 07010KT 9999 BKN025 TEMPO 1909/1918 SCT018 PROB30 TEMPO 1910/1916 07012G25KT 7000 SHRA

Weather observations and forecasts of more than 4000 airports (METAR and TAF reports).

The available stations are represented by yellow and red dots on the map.

Hover mouse over dot to see the name of the station.

Then click to see weather observations and forecasts.

To change the map : click on the green buttons with a black cross to zoom in, on the green button with a dash to zoom out, or on the green arrows for adjacent maps.


METAR-TAF: